Terminal Aerodrome Forecast
Issued by NWS Pueblo, CO

Home | Current Version | Previous Version | Text Only | Print | Product List | Glossary On
Versions: 1 2 3 4 5 6 7 8 9 10 11 12 13 14 15 16 17 18 19 20 21 22 23 24 25 26 27 28 29 30 31 32 33 34 35
000
FTUS45 KPUB 280531
TAFCOS
TAF
KCOS 280531Z 2806/2906 13007KT P6SM -SHRA SCT020 SCT050 OVC090
      TEMPO 2806/2810 5SM BR BKN020
     FM281000 VRB06KT P6SM SCT015 BKN100
     FM281800 16010KT P6SM VCTS SCT060CB BKN120=

USA.gov is the U.S. government's official web portal to all federal, state and local government web resources and services.